sensor_id;sensor_type;location;lat;lon;timestamp;pressure;altitude;pressure_sealevel;temperature;humidity
78835;BME280;68187;42.682;23.352;2024-01-10T00:01:59;96219.13;;;-3.87;67.06
78835;BME280;68187;42.682;23.352;2024-01-10T00:04:26;96214.91;;;-3.88;66.52
78835;BME280;68187;42.682;23.352;2024-01-10T00:06:53;96213.25;;;-4.32;67.69
78835;BME280;68187;42.682;23.352;2024-01-10T00:09:20;96216.19;;;-4.09;67.27
78835;BME280;68187;42.682;23.352;2024-01-10T00:11:48;96220.16;;;-3.97;67.12
78835;BME280;68187;42.682;23.352;2024-01-10T00:14:16;96225.97;;;-3.78;66.19
78835;BME280;68187;42.682;23.352;2024-01-10T00:16:43;96222.59;;;-3.96;66.23
78835;BME280;68187;42.682;23.352;2024-01-10T00:19:10;96229.81;;;-3.82;65.54
78835;BME280;68187;42.682;23.352;2024-01-10T00:21:36;96225.66;;;-3.75;65.28
78835;BME280;68187;42.682;23.352;2024-01-10T00:24:03;96230.34;;;-3.96;66.14
78835;BME280;68187;42.682;23.352;2024-01-10T00:26:30;96231.28;;;-3.97;66.68
78835;BME280;68187;42.682;23.352;2024-01-10T00:28:57;96234.19;;;-4.00;66.19
78835;BME280;68187;42.682;23.352;2024-01-10T00:31:25;96228.56;;;-3.95;66.45
78835;BME280;68187;42.682;23.352;2024-01-10T00:33:52;96234.53;;;-3.77;65.51
78835;BME280;68187;42.682;23.352;2024-01-10T00:36:19;96230.94;;;-3.84;65.70
78835;BME280;68187;42.682;23.352;2024-01-10T00:38:46;96235.53;;;-3.70;65.26
78835;BME280;68187;42.682;23.352;2024-01-10T00:41:13;96231.00;;;-3.50;65.20
78835;BME280;68187;42.682;23.352;2024-01-10T00:43:40;96232.22;;;-3.37;64.82
78835;BME280;68187;42.682;23.352;2024-01-10T00:46:07;96233.44;;;-3.23;64.03
78835;BME280;68187;42.682;23.352;2024-01-10T00:48:35;96229.94;;;-3.40;64.02
78835;BME280;68187;42.682;23.352;2024-01-10T00:51:02;96239.19;;;-3.29;65.48
78835;BME280;68187;42.682;23.352;2024-01-10T00:53:33;96233.34;;;-3.14;63.86
78835;BME280;68187;42.682;23.352;2024-01-10T00:56:00;96231.13;;;-3.34;64.12
78835;BME280;68187;42.682;23.352;2024-01-10T00:58:27;96233.72;;;-3.52;63.94
78835;BME280;68187;42.682;23.352;2024-01-10T01:00:54;96236.28;;;-3.34;63.38
78835;BME280;68187;42.682;23.352;2024-01-10T01:03:21;96235.81;;;-3.30;62.68
78835;BME280;68187;42.682;23.352;2024-01-10T01:05:49;96233.81;;;-3.18;62.53
78835;BME280;68187;42.682;23.352;2024-01-10T01:08:16;96226.06;;;-3.10;62.96
78835;BME280;68187;42.682;23.352;2024-01-10T01:10:43;96232.66;;;-3.16;63.38
78835;BME280;68187;42.682;23.352;2024-01-10T01:13:10;96227.34;;;-3.14;63.11
78835;BME280;68187;42.682;23.352;2024-01-10T01:15:37;96224.88;;;-3.24;62.56
78835;BME280;68187;42.682;23.352;2024-01-10T01:18:04;96235.38;;;-3.25;62.96
78835;BME280;68187;42.682;23.352;2024-01-10T01:20:32;96220.78;;;-3.34;62.55
78835;BME280;68187;42.682;23.352;2024-01-10T01:23:00;96225.81;;;-3.25;62.92
78835;BME280;68187;42.682;23.352;2024-01-10T01:25:27;96223.31;;;-3.42;62.76
78835;BME280;68187;42.682;23.352;2024-01-10T01:27:54;96232.38;;;-3.64;64.20
78835;BME280;68187;42.682;23.352;2024-01-10T01:30:21;96221.38;;;-3.66;64.53
78835;BME280;68187;42.682;23.352;2024-01-10T01:32:48;96209.88;;;-3.72;65.09
78835;BME280;68187;42.682;23.352;2024-01-10T01:35:15;96216.88;;;-3.64;64.88
78835;BME280;68187;42.682;23.352;2024-01-10T01:37:47;96215.69;;;-3.70;64.80
78835;BME280;68187;42.682;23.352;2024-01-10T01:40:15;96210.53;;;-3.70;64.76
78835;BME280;68187;42.682;23.352;2024-01-10T01:42:44;96212.56;;;-3.55;64.45
78835;BME280;68187;42.682;23.352;2024-01-10T01:45:12;96213.53;;;-3.56;65.46
78835;BME280;68187;42.682;23.352;2024-01-10T01:47:40;96212.69;;;-3.39;64.71
78835;BME280;68187;42.682;23.352;2024-01-10T01:50:07;96217.88;;;-3.31;64.22
78835;BME280;68187;42.682;23.352;2024-01-10T01:52:35;96216.56;;;-3.35;64.26
78835;BME280;68187;42.682;23.352;2024-01-10T01:55:02;96212.63;;;-3.22;64.01
78835;BME280;68187;42.682;23.352;2024-01-10T01:57:31;96206.13;;;-3.26;63.28
78835;BME280;68187;42.682;23.352;2024-01-10T01:59:58;96203.84;;;-3.29;63.56
78835;BME280;68187;42.682;23.352;2024-01-10T02:02:25;96195.50;;;-3.23;63.87
78835;BME280;68187;42.682;23.352;2024-01-10T02:04:54;96195.34;;;-3.47;64.60
78835;BME280;68187;42.682;23.352;2024-01-10T02:07:21;96197.13;;;-3.47;65.33
78835;BME280;68187;42.682;23.352;2024-01-10T02:09:48;96191.06;;;-3.64;64.88
78835;BME280;68187;42.682;23.352;2024-01-10T02:12:15;96192.22;;;-3.84;65.60
78835;BME280;68187;42.682;23.352;2024-01-10T02:14:44;96188.47;;;-3.64;64.95
78835;BME280;68187;42.682;23.352;2024-01-10T02:17:11;96193.03;;;-3.58;64.67
78835;BME280;68187;42.682;23.352;2024-01-10T02:19:38;96191.88;;;-3.64;64.34
78835;BME280;68187;42.682;23.352;2024-01-10T02:22:05;96188.16;;;-3.61;64.16
78835;BME280;68187;42.682;23.352;2024-01-10T02:24:31;96193.66;;;-3.64;63.70
78835;BME280;68187;42.682;23.352;2024-01-10T02:27:00;96189.19;;;-3.80;63.62
78835;BME280;68187;42.682;23.352;2024-01-10T02:29:27;96196.88;;;-3.62;63.51
78835;BME280;68187;42.682;23.352;2024-01-10T02:31:54;96193.44;;;-3.45;63.11
78835;BME280;68187;42.682;23.352;2024-01-10T02:34:21;96188.44;;;-3.46;62.80
78835;BME280;68187;42.682;23.352;2024-01-10T02:36:48;96186.00;;;-3.48;62.33
78835;BME280;68187;42.682;23.352;2024-01-10T02:39:15;96182.97;;;-3.43;62.22
78835;BME280;68187;42.682;23.352;2024-01-10T02:41:41;96190.66;;;-3.51;62.44
78835;BME280;68187;42.682;23.352;2024-01-10T02:44:10;96190.38;;;-3.40;62.51
78835;BME280;68187;42.682;23.352;2024-01-10T02:46:37;96190.56;;;-3.42;62.22
78835;BME280;68187;42.682;23.352;2024-01-10T02:49:04;96196.53;;;-3.41;62.78
78835;BME280;68187;42.682;23.352;2024-01-10T02:51:31;96186.91;;;-3.57;62.59
78835;BME280;68187;42.682;23.352;2024-01-10T02:53:58;96195.56;;;-3.66;63.17
78835;BME280;68187;42.682;23.352;2024-01-10T02:56:25;96198.25;;;-3.50;62.55
78835;BME280;68187;42.682;23.352;2024-01-10T02:58:52;96197.47;;;-3.42;63.34
78835;BME280;68187;42.682;23.352;2024-01-10T03:01:20;96199.59;;;-3.38;62.31
78835;BME280;68187;42.682;23.352;2024-01-10T03:03:47;96191.19;;;-3.40;63.07
78835;BME280;68187;42.682;23.352;2024-01-10T03:06:13;96185.31;;;-3.24;63.16
78835;BME280;68187;42.682;23.352;2024-01-10T03:08:39;96195.97;;;-3.27;62.87
78835;BME280;68187;42.682;23.352;2024-01-10T03:11:06;96191.09;;;-3.30;62.88
78835;BME280;68187;42.682;23.352;2024-01-10T03:13:33;96186.41;;;-3.35;63.02
78835;BME280;68187;42.682;23.352;2024-01-10T03:16:00;96191.03;;;-3.38;63.31
78835;BME280;68187;42.682;23.352;2024-01-10T03:18:28;96195.16;;;-3.28;63.13
78835;BME280;68187;42.682;23.352;2024-01-10T03:20:56;96203.31;;;-3.40;63.28
78835;BME280;68187;42.682;23.352;2024-01-10T03:23:22;96200.59;;;-3.39;63.10
78835;BME280;68187;42.682;23.352;2024-01-10T03:25:49;96199.47;;;-3.36;63.28
78835;BME280;68187;42.682;23.352;2024-01-10T03:28:17;96204.84;;;-3.30;63.71
78835;BME280;68187;42.682;23.352;2024-01-10T03:30:44;96211.03;;;-3.40;64.11
78835;BME280;68187;42.682;23.352;2024-01-10T03:33:11;96204.78;;;-3.38;63.98
78835;BME280;68187;42.682;23.352;2024-01-10T03:35:39;96206.09;;;-3.59;64.08
78835;BME280;68187;42.682;23.352;2024-01-10T03:38:06;96205.72;;;-3.65;64.27
78835;BME280;68187;42.682;23.352;2024-01-10T03:40:33;96201.75;;;-3.59;64.84
78835;BME280;68187;42.682;23.352;2024-01-10T03:43:00;96201.13;;;-3.53;63.28
78835;BME280;68187;42.682;23.352;2024-01-10T03:45:27;96208.22;;;-3.55;62.48
78835;BME280;68187;42.682;23.352;2024-01-10T03:47:55;96202.34;;;-3.65;61.86
78835;BME280;68187;42.682;23.352;2024-01-10T03:50:22;96196.31;;;-3.74;63.17
78835;BME280;68187;42.682;23.352;2024-01-10T03:52:50;96205.34;;;-3.95;62.70
78835;BME280;68187;42.682;23.352;2024-01-10T03:55:17;96199.50;;;-3.97;62.87
78835;BME280;68187;42.682;23.352;2024-01-10T03:57:44;96208.94;;;-3.88;63.57
78835;BME280;68187;42.682;23.352;2024-01-10T04:00:12;96206.72;;;-3.83;62.96
78835;BME280;68187;42.682;23.352;2024-01-10T04:02:39;96206.13;;;-3.77;62.13
78835;BME280;68187;42.682;23.352;2024-01-10T04:05:07;96211.81;;;-3.74;62.66
78835;BME280;68187;42.682;23.352;2024-01-10T04:07:36;96213.63;;;-3.66;62.99
78835;BME280;68187;42.682;23.352;2024-01-10T04:10:06;96216.34;;;-3.68;63.68
78835;BME280;68187;42.682;23.352;2024-01-10T04:12:35;96217.56;;;-3.54;63.27
78835;BME280;68187;42.682;23.352;2024-01-10T04:15:03;96224.88;;;-3.49;62.91
78835;BME280;68187;42.682;23.352;2024-01-10T04:17:30;96220.03;;;-3.52;62.60
78835;BME280;68187;42.682;23.352;2024-01-10T04:19:57;96216.53;;;-3.43;62.91
78835;BME280;68187;42.682;23.352;2024-01-10T04:22:24;96218.94;;;-3.42;62.77
78835;BME280;68187;42.682;23.352;2024-01-10T04:24:51;96225.28;;;-3.36;62.89
78835;BME280;68187;42.682;23.352;2024-01-10T04:27:20;96220.91;;;-3.36;63.39
78835;BME280;68187;42.682;23.352;2024-01-10T04:29:46;96220.00;;;-3.27;63.59
78835;BME280;68187;42.682;23.352;2024-01-10T04:32:14;96229.41;;;-3.18;63.23
78835;BME280;68187;42.682;23.352;2024-01-10T04:34:41;96235.31;;;-3.08;62.53
78835;BME280;68187;42.682;23.352;2024-01-10T04:37:07;96230.94;;;-3.07;62.95
78835;BME280;68187;42.682;23.352;2024-01-10T04:39:35;96236.59;;;-3.29;62.12
78835;BME280;68187;42.682;23.352;2024-01-10T04:42:03;96225.53;;;-3.73;60.43
78835;BME280;68187;42.682;23.352;2024-01-10T04:44:32;96234.50;;;-3.59;60.37
78835;BME280;68187;42.682;23.352;2024-01-10T04:46:59;96244.94;;;-3.61;60.27
78835;BME280;68187;42.682;23.352;2024-01-10T04:49:26;96245.81;;;-3.78;61.12
78835;BME280;68187;42.682;23.352;2024-01-10T04:51:52;96247.69;;;-3.63;61.16
78835;BME280;68187;42.682;23.352;2024-01-10T04:54:19;96245.75;;;-3.86;61.53
78835;BME280;68187;42.682;23.352;2024-01-10T04:56:47;96249.03;;;-3.76;60.87
78835;BME280;68187;42.682;23.352;2024-01-10T04:59:14;96257.00;;;-3.70;61.24
78835;BME280;68187;42.682;23.352;2024-01-10T05:01:42;96255.44;;;-3.63;61.73
78835;BME280;68187;42.682;23.352;2024-01-10T05:04:09;96253.72;;;-3.54;61.55
78835;BME280;68187;42.682;23.352;2024-01-10T05:06:36;96256.34;;;-3.72;62.60
78835;BME280;68187;42.682;23.352;2024-01-10T05:09:03;96248.53;;;-3.80;62.96
78835;BME280;68187;42.682;23.352;2024-01-10T05:11:30;96249.56;;;-3.73;63.25
78835;BME280;68187;42.682;23.352;2024-01-10T05:13:57;96257.13;;;-3.53;62.27
78835;BME280;68187;42.682;23.352;2024-01-10T05:16:24;96248.91;;;-3.49;62.09
78835;BME280;68187;42.682;23.352;2024-01-10T05:18:52;96257.06;;;-3.36;62.07
78835;BME280;68187;42.682;23.352;2024-01-10T05:21:19;96256.13;;;-3.35;62.16
78835;BME280;68187;42.682;23.352;2024-01-10T05:23:47;96261.00;;;-3.32;61.98
78835;BME280;68187;42.682;23.352;2024-01-10T05:26:14;96255.59;;;-3.38;61.09
78835;BME280;68187;42.682;23.352;2024-01-10T05:28:41;96255.81;;;-3.93;61.32
78835;BME280;68187;42.682;23.352;2024-01-10T05:31:08;96263.00;;;-3.87;61.77
78835;BME280;68187;42.682;23.352;2024-01-10T05:33:35;96266.50;;;-3.70;61.66
78835;BME280;68187;42.682;23.352;2024-01-10T05:36:03;96274.69;;;-3.75;62.17
78835;BME280;68187;42.682;23.352;2024-01-10T05:38:31;96273.94;;;-3.67;61.54
78835;BME280;68187;42.682;23.352;2024-01-10T05:40:57;96278.31;;;-3.68;60.83
78835;BME280;68187;42.682;23.352;2024-01-10T05:43:25;96281.84;;;-3.69;60.17
78835;BME280;68187;42.682;23.352;2024-01-10T05:45:51;96275.63;;;-3.58;58.57
78835;BME280;68187;42.682;23.352;2024-01-10T05:48:18;96275.34;;;-3.55;58.62
78835;BME280;68187;42.682;23.352;2024-01-10T05:50:45;96275.22;;;-3.71;58.33
78835;BME280;68187;42.682;23.352;2024-01-10T05:53:14;96275.31;;;-3.98;58.50
78835;BME280;68187;42.682;23.352;2024-01-10T05:55:42;96272.44;;;-3.78;59.16
78835;BME280;68187;42.682;23.352;2024-01-10T05:58:09;96276.38;;;-3.66;58.31
78835;BME280;68187;42.682;23.352;2024-01-10T06:00:36;96279.69;;;-3.55;58.06
78835;BME280;68187;42.682;23.352;2024-01-10T06:03:03;96287.34;;;-3.46;58.76
78835;BME280;68187;42.682;23.352;2024-01-10T06:05:30;96286.03;;;-3.50;58.18
78835;BME280;68187;42.682;23.352;2024-01-10T06:07:57;96287.81;;;-3.50;57.40
78835;BME280;68187;42.682;23.352;2024-01-10T06:10:26;96286.00;;;-3.32;56.83
78835;BME280;68187;42.682;23.352;2024-01-10T06:12:54;96291.31;;;-3.34;57.02
78835;BME280;68187;42.682;23.352;2024-01-10T06:15:21;96286.38;;;-3.27;56.72
78835;BME280;68187;42.682;23.352;2024-01-10T06:17:48;96292.88;;;-3.41;57.42
78835;BME280;68187;42.682;23.352;2024-01-10T06:20:16;96291.81;;;-3.30;57.41
78835;BME280;68187;42.682;23.352;2024-01-10T06:22:43;96297.16;;;-3.32;57.25
78835;BME280;68187;42.682;23.352;2024-01-10T06:25:12;96301.09;;;-3.45;56.62
78835;BME280;68187;42.682;23.352;2024-01-10T06:27:40;96304.53;;;-3.37;56.10
78835;BME280;68187;42.682;23.352;2024-01-10T06:30:08;96301.38;;;-3.48;55.77
78835;BME280;68187;42.682;23.352;2024-01-10T06:32:35;96303.06;;;-3.39;55.89
78835;BME280;68187;42.682;23.352;2024-01-10T06:35:02;96304.19;;;-3.59;55.93
78835;BME280;68187;42.682;23.352;2024-01-10T06:37:30;96310.88;;;-4.02;56.67
78835;BME280;68187;42.682;23.352;2024-01-10T06:39:57;96314.66;;;-3.96;56.93
78835;BME280;68187;42.682;23.352;2024-01-10T06:42:24;96318.44;;;-3.91;57.05
78835;BME280;68187;42.682;23.352;2024-01-10T06:44:53;96319.97;;;-3.98;56.26
78835;BME280;68187;42.682;23.352;2024-01-10T06:47:20;96319.16;;;-4.16;55.73
78835;BME280;68187;42.682;23.352;2024-01-10T06:49:47;96325.19;;;-4.07;55.66
78835;BME280;68187;42.682;23.352;2024-01-10T06:52:14;96327.13;;;-4.09;55.24
78835;BME280;68187;42.682;23.352;2024-01-10T06:54:42;96332.34;;;-4.01;55.00
78835;BME280;68187;42.682;23.352;2024-01-10T06:57:09;96335.69;;;-3.74;55.44
78835;BME280;68187;42.682;23.352;2024-01-10T06:59:36;96332.97;;;-3.54;54.35
78835;BME280;68187;42.682;23.352;2024-01-10T07:02:04;96332.66;;;-3.51;53.62
78835;BME280;68187;42.682;23.352;2024-01-10T07:04:32;96334.38;;;-3.78;53.29
78835;BME280;68187;42.682;23.352;2024-01-10T07:06:59;96328.31;;;-3.69;53.97
78835;BME280;68187;42.682;23.352;2024-01-10T07:09:26;96332.88;;;-3.63;53.66
78835;BME280;68187;42.682;23.352;2024-01-10T07:11:53;96338.44;;;-3.75;52.89
78835;BME280;68187;42.682;23.352;2024-01-10T07:14:19;96330.28;;;-3.45;52.65
78835;BME280;68187;42.682;23.352;2024-01-10T07:16:46;96337.06;;;-3.26;53.02
78835;BME280;68187;42.682;23.352;2024-01-10T07:19:15;96338.22;;;-2.95;52.35
78835;BME280;68187;42.682;23.352;2024-01-10T07:21:42;96339.88;;;-2.94;51.44
78835;BME280;68187;42.682;23.352;2024-01-10T07:24:09;96338.34;;;-2.79;52.45
78835;BME280;68187;42.682;23.352;2024-01-10T07:26:37;96340.00;;;-2.70;51.18
78835;BME280;68187;42.682;23.352;2024-01-10T07:29:05;96344.91;;;-2.59;51.04
78835;BME280;68187;42.682;23.352;2024-01-10T07:31:34;96344.44;;;-2.54;50.51
78835;BME280;68187;42.682;23.352;2024-01-10T07:34:01;96346.91;;;-2.53;48.90
78835;BME280;68187;42.682;23.352;2024-01-10T07:36:31;96351.75;;;-2.50;47.74
78835;BME280;68187;42.682;23.352;2024-01-10T07:38:59;96320.94;;;-2.43;48.82
78835;BME280;68187;42.682;23.352;2024-01-10T07:41:26;96355.38;;;-2.35;49.51
78835;BME280;68187;42.682;23.352;2024-01-10T07:43:53;96355.00;;;-2.06;48.08
78835;BME280;68187;42.682;23.352;2024-01-10T07:46:20;96358.03;;;-2.19;49.73
78835;BME280;68187;42.682;23.352;2024-01-10T07:48:48;96354.72;;;-1.95;48.45
78835;BME280;68187;42.682;23.352;2024-01-10T07:51:15;96356.31;;;-2.02;48.50
78835;BME280;68187;42.682;23.352;2024-01-10T07:53:43;96362.69;;;-1.72;47.76
78835;BME280;68187;42.682;23.352;2024-01-10T07:56:10;96358.31;;;-1.80;46.49
78835;BME280;68187;42.682;23.352;2024-01-10T07:58:38;96359.94;;;-1.87;47.07
78835;BME280;68187;42.682;23.352;2024-01-10T08:01:05;96358.78;;;-2.34;47.21
78835;BME280;68187;42.682;23.352;2024-01-10T08:03:32;96357.88;;;-2.17;47.32
78835;BME280;68187;42.682;23.352;2024-01-10T08:06:00;96354.81;;;-2.21;46.99
78835;BME280;68187;42.682;23.352;2024-01-10T08:08:27;96355.56;;;-1.86;46.59
78835;BME280;68187;42.682;23.352;2024-01-10T08:10:56;96352.97;;;-1.78;45.31
78835;BME280;68187;42.682;23.352;2024-01-10T08:13:22;96365.81;;;-1.53;44.79
78835;BME280;68187;42.682;23.352;2024-01-10T08:15:49;96358.53;;;-1.09;44.27
78835;BME280;68187;42.682;23.352;2024-01-10T08:18:16;96364.38;;;-0.91;43.33
78835;BME280;68187;42.682;23.352;2024-01-10T08:20:43;96359.84;;;-0.97;41.10
78835;BME280;68187;42.682;23.352;2024-01-10T08:23:10;96355.31;;;-1.27;42.97
78835;BME280;68187;42.682;23.352;2024-01-10T08:25:37;96364.53;;;-1.08;41.51
78835;BME280;68187;42.682;23.352;2024-01-10T08:28:07;96359.03;;;-0.97;41.66
78835;BME280;68187;42.682;23.352;2024-01-10T08:30:35;96365.69;;;-0.87;41.38
78835;BME280;68187;42.682;23.352;2024-01-10T08:33:02;96362.75;;;-0.92;40.91
78835;BME280;68187;42.682;23.352;2024-01-10T08:35:30;96370.53;;;-0.76;42.17
78835;BME280;68187;42.682;23.352;2024-01-10T08:37:57;96359.09;;;-0.34;41.82
78835;BME280;68187;42.682;23.352;2024-01-10T08:40:24;96354.53;;;-0.32;40.76
78835;BME280;68187;42.682;23.352;2024-01-10T08:42:52;96359.31;;;-0.05;41.65
78835;BME280;68187;42.682;23.352;2024-01-10T08:45:22;96362.84;;;0.02;41.54
78835;BME280;68187;42.682;23.352;2024-01-10T08:47:50;96363.91;;;0.46;43.06
78835;BME280;68187;42.682;23.352;2024-01-10T08:50:18;96364.00;;;-0.01;40.96
78835;BME280;68187;42.682;23.352;2024-01-10T08:52:45;96369.13;;;-0.31;40.49
78835;BME280;68187;42.682;23.352;2024-01-10T08:55:12;96360.97;;;-0.20;41.60
78835;BME280;68187;42.682;23.352;2024-01-10T08:57:39;96368.47;;;0.14;40.41
78835;BME280;68187;42.682;23.352;2024-01-10T09:00:07;96364.91;;;0.45;40.16
78835;BME280;68187;42.682;23.352;2024-01-10T09:02:38;96355.25;;;0.23;40.82
78835;BME280;68187;42.682;23.352;2024-01-10T09:05:06;96359.63;;;0.99;40.76
78835;BME280;68187;42.682;23.352;2024-01-10T09:07:35;96349.66;;;1.39;40.44
78835;BME280;68187;42.682;23.352;2024-01-10T09:10:03;96349.69;;;1.54;38.82
78835;BME280;68187;42.682;23.352;2024-01-10T09:12:31;96353.56;;;1.21;40.50
78835;BME280;68187;42.682;23.352;2024-01-10T09:14:58;96350.47;;;1.55;37.88
78835;BME280;68187;42.682;23.352;2024-01-10T09:17:25;96353.09;;;1.69;38.69
78835;BME280;68187;42.682;23.352;2024-01-10T09:19:53;96355.50;;;1.71;38.56
78835;BME280;68187;42.682;23.352;2024-01-10T09:22:20;96350.91;;;1.29;39.03
78835;BME280;68187;42.682;23.352;2024-01-10T09:24:47;96353.44;;;1.00;40.40
78835;BME280;68187;42.682;23.352;2024-01-10T09:27:14;96349.31;;;1.86;38.68
78835;BME280;68187;42.682;23.352;2024-01-10T09:29:41;96338.94;;;2.58;37.16
78835;BME280;68187;42.682;23.352;2024-01-10T09:32:08;96336.50;;;2.77;36.09
78835;BME280;68187;42.682;23.352;2024-01-10T09:34:35;96337.44;;;2.70;37.64
78835;BME280;68187;42.682;23.352;2024-01-10T09:37:03;96341.47;;;2.94;37.76
78835;BME280;68187;42.682;23.352;2024-01-10T09:39:30;96338.84;;;2.94;36.04
78835;BME280;68187;42.682;23.352;2024-01-10T09:41:58;96334.72;;;3.27;36.68
78835;BME280;68187;42.682;23.352;2024-01-10T09:44:25;96328.22;;;3.78;36.60
78835;BME280;68187;42.682;23.352;2024-01-10T09:46:54;96331.91;;;3.90;34.87
78835;BME280;68187;42.682;23.352;2024-01-10T09:49:21;96328.78;;;4.08;33.92
78835;BME280;68187;42.682;23.352;2024-01-10T09:51:49;96325.84;;;3.83;36.17
78835;BME280;68187;42.682;23.352;2024-01-10T09:54:17;96325.16;;;4.09;35.69
78835;BME280;68187;42.682;23.352;2024-01-10T09:56:45;96317.25;;;3.96;35.91
78835;BME280;68187;42.682;23.352;2024-01-10T09:59:13;96318.28;;;4.68;34.91
78835;BME280;68187;42.682;23.352;2024-01-10T10:01:40;96314.69;;;4.95;35.13
78835;BME280;68187;42.682;23.352;2024-01-10T10:04:11;96312.09;;;5.22;35.19
78835;BME280;68187;42.682;23.352;2024-01-10T10:06:38;96308.25;;;5.44;34.43
78835;BME280;68187;42.682;23.352;2024-01-10T10:09:07;96307.66;;;4.70;35.10
78835;BME280;68187;42.682;23.352;2024-01-10T10:11:35;96307.06;;;4.94;35.12
78835;BME280;68187;42.682;23.352;2024-01-10T10:14:15;96300.81;;;5.01;33.46
78835;BME280;68187;42.682;23.352;2024-01-10T10:16:42;96294.38;;;5.24;34.59
78835;BME280;68187;42.682;23.352;2024-01-10T10:19:10;96287.91;;;4.80;34.81
78835;BME280;68187;42.682;23.352;2024-01-10T10:21:38;96286.47;;;4.52;36.03
78835;BME280;68187;42.682;23.352;2024-01-10T10:24:05;96285.91;;;4.76;35.44
78835;BME280;68187;42.682;23.352;2024-01-10T10:26:33;96273.41;;;4.52;35.75
78835;BME280;68187;42.682;23.352;2024-01-10T10:29:02;96275.38;;;4.43;36.91
78835;BME280;68187;42.682;23.352;2024-01-10T10:31:30;96276.19;;;4.50;35.42
78835;BME280;68187;42.682;23.352;2024-01-10T10:33:59;96278.56;;;3.10;37.63
78835;BME280;68187;42.682;23.352;2024-01-10T10:36:28;96270.81;;;3.98;37.60
78835;BME280;68187;42.682;23.352;2024-01-10T10:38:59;96264.13;;;4.43;36.35
78835;BME280;68187;42.682;23.352;2024-01-10T10:41:27;96253.25;;;4.39;37.30
78835;BME280;68187;42.682;23.352;2024-01-10T10:43:57;96252.47;;;4.71;36.64
78835;BME280;68187;42.682;23.352;2024-01-10T10:46:27;96248.44;;;4.88;36.37
78835;BME280;68187;42.682;23.352;2024-01-10T10:48:55;96245.75;;;4.16;36.28
78835;BME280;68187;42.682;23.352;2024-01-10T10:51:32;96253.25;;;4.52;37.18
78835;BME280;68187;42.682;23.352;2024-01-10T10:53:59;96235.19;;;4.96;37.38
78835;BME280;68187;42.682;23.352;2024-01-10T10:56:29;96238.97;;;5.07;36.35
78835;BME280;68187;42.682;23.352;2024-01-10T10:58:57;96223.47;;;5.19;35.16
78835;BME280;68187;42.682;23.352;2024-01-10T11:01:27;96227.44;;;5.41;35.21
78835;BME280;68187;42.682;23.352;2024-01-10T11:03:55;96224.28;;;4.86;35.57
78835;BME280;68187;42.682;23.352;2024-01-10T11:06:22;96228.13;;;4.58;36.79
78835;BME280;68187;42.682;23.352;2024-01-10T11:08:51;96222.69;;;4.66;36.04
78835;BME280;68187;42.682;23.352;2024-01-10T11:11:29;96218.66;;;5.02;35.59
78835;BME280;68187;42.682;23.352;2024-01-10T11:14:09;96211.00;;;4.62;35.33
78835;BME280;68187;42.682;23.352;2024-01-10T11:16:57;96218.66;;;4.96;34.94
78835;BME280;68187;42.682;23.352;2024-01-10T11:20:05;96211.22;;;4.80;35.67
78835;BME280;68187;42.682;23.352;2024-01-10T11:25:41;96207.34;;;5.22;34.88
78835;BME280;68187;42.682;23.352;2024-01-10T11:28:08;96201.91;;;5.87;34.44
78835;BME280;68187;42.682;23.352;2024-01-10T11:30:35;96188.34;;;6.34;32.86
78835;BME280;68187;42.682;23.352;2024-01-10T11:33:18;96188.53;;;6.64;33.07
78835;BME280;68187;42.682;23.352;2024-01-10T11:36:05;96191.31;;;6.07;33.32
78835;BME280;68187;42.682;23.352;2024-01-10T11:38:32;96180.91;;;5.94;32.38
78835;BME280;68187;42.682;23.352;2024-01-10T11:41:00;96177.50;;;6.56;33.02
78835;BME280;68187;42.682;23.352;2024-01-10T11:43:27;96175.88;;;6.79;33.06
78835;BME280;68187;42.682;23.352;2024-01-10T11:45:55;96172.03;;;6.57;32.62
78835;BME280;68187;42.682;23.352;2024-01-10T11:48:31;96171.28;;;5.81;33.68
78835;BME280;68187;42.682;23.352;2024-01-10T11:50:58;96164.72;;;6.59;32.38
78835;BME280;68187;42.682;23.352;2024-01-10T11:53:39;96162.84;;;7.52;31.29
78835;BME280;68187;42.682;23.352;2024-01-10T11:56:09;96152.94;;;7.11;31.52
78835;BME280;68187;42.682;23.352;2024-01-10T11:58:52;96158.69;;;8.22;30.10
78835;BME280;68187;42.682;23.352;2024-01-10T12:01:20;96156.28;;;8.73;30.23
78835;BME280;68187;42.682;23.352;2024-01-10T12:03:51;96147.97;;;8.99;29.05
78835;BME280;68187;42.682;23.352;2024-01-10T12:06:19;96145.53;;;8.98;28.80
78835;BME280;68187;42.682;23.352;2024-01-10T12:08:47;96141.97;;;9.15;28.25
78835;BME280;68187;42.682;23.352;2024-01-10T12:11:14;96134.69;;;9.57;28.09
78835;BME280;68187;42.682;23.352;2024-01-10T12:13:42;96143.03;;;7.67;30.37
78835;BME280;68187;42.682;23.352;2024-01-10T12:16:10;96136.31;;;8.31;29.54
78835;BME280;68187;42.682;23.352;2024-01-10T12:18:37;96134.88;;;8.58;29.60
78835;BME280;68187;42.682;23.352;2024-01-10T12:21:05;96131.41;;;8.46;29.74
78835;BME280;68187;42.682;23.352;2024-01-10T12:23:34;96134.53;;;8.89;29.99
78835;BME280;68187;42.682;23.352;2024-01-10T12:26:02;96126.41;;;8.56;29.93
78835;BME280;68187;42.682;23.352;2024-01-10T12:28:30;96128.34;;;8.95;28.83
78835;BME280;68187;42.682;23.352;2024-01-10T12:30:57;96125.97;;;8.94;29.17
78835;BME280;68187;42.682;23.352;2024-01-10T12:33:24;96130.91;;;9.53;28.46
78835;BME280;68187;42.682;23.352;2024-01-10T12:36:07;96131.56;;;9.09;29.22
78835;BME280;68187;42.682;23.352;2024-01-10T12:38:35;96136.31;;;9.47;28.37
78835;BME280;68187;42.682;23.352;2024-01-10T12:41:03;96125.81;;;10.03;27.81
78835;BME280;68187;42.682;23.352;2024-01-10T12:43:30;96131.81;;;9.59;28.63
78835;BME280;68187;42.682;23.352;2024-01-10T12:46:04;96125.66;;;9.81;28.45
78835;BME280;68187;42.682;23.352;2024-01-10T12:48:32;96121.34;;;9.75;27.82
78835;BME280;68187;42.682;23.352;2024-01-10T12:51:02;96130.88;;;8.55;29.81
78835;BME280;68187;42.682;23.352;2024-01-10T12:53:33;96142.16;;;6.58;33.61
78835;BME280;68187;42.682;23.352;2024-01-10T12:56:00;96139.09;;;5.67;35.23
78835;BME280;68187;42.682;23.352;2024-01-10T12:58:28;96143.19;;;4.73;36.67
78835;BME280;68187;42.682;23.352;2024-01-10T13:00:55;96136.88;;;5.07;37.29